createdAt,value
2019-02-15T00:01:10.812Z,961.98
2019-02-15T00:03:37.129Z,961.96
2019-02-15T00:06:03.440Z,961.95
2019-02-15T00:08:29.743Z,962.05
2019-02-15T00:10:56.052Z,962.04
2019-02-15T00:13:22.366Z,962.05
2019-02-15T00:15:48.671Z,962.04
2019-02-15T00:18:14.985Z,962.06
2019-02-15T00:20:41.293Z,962.04
2019-02-15T00:23:07.606Z,962.00
2019-02-15T00:25:33.912Z,962.01
2019-02-15T00:28:00.220Z,962.00
2019-02-15T00:30:26.528Z,961.97
2019-02-15T00:32:52.833Z,961.98
2019-02-15T00:35:19.141Z,961.95
2019-02-15T00:37:45.444Z,961.90
2019-02-15T00:40:11.752Z,961.87
2019-02-15T00:42:38.069Z,961.81
2019-02-15T00:45:04.371Z,961.84
2019-02-15T00:47:30.676Z,961.80
2019-02-15T00:49:56.985Z,961.75
2019-02-15T00:52:23.294Z,961.73
2019-02-15T00:54:49.600Z,961.72
2019-02-15T00:57:15.912Z,961.83
2019-02-15T00:59:42.220Z,961.83
2019-02-15T01:02:08.538Z,961.76
2019-02-15T01:04:34.845Z,961.82
2019-02-15T01:07:01.154Z,961.78
2019-02-15T01:09:27.458Z,961.78
2019-02-15T01:11:53.769Z,961.68
2019-02-15T01:14:20.077Z,961.72
2019-02-15T01:16:46.396Z,961.77
2019-02-15T01:19:12.706Z,961.81
2019-02-15T01:21:39.015Z,961.86
2019-02-15T01:24:05.324Z,961.85
2019-02-15T01:26:31.633Z,961.85
2019-02-15T01:28:57.943Z,961.88
2019-02-15T01:31:24.263Z,961.82
2019-02-15T01:33:50.574Z,961.89
2019-02-15T01:36:16.880Z,961.84
2019-02-15T01:38:43.189Z,961.82
2019-02-15T01:41:09.501Z,961.85
2019-02-15T01:43:39.999Z,961.81
2019-02-15T01:46:02.117Z,961.82
2019-02-15T01:48:28.419Z,961.84
2019-02-15T01:50:54.801Z,961.88
2019-02-15T01:53:21.107Z,961.82
2019-02-15T01:55:47.415Z,961.81
2019-02-15T01:58:13.725Z,961.79
2019-02-15T02:00:40.033Z,961.82
2019-02-15T02:03:06.371Z,961.75
2019-02-15T02:05:32.672Z,961.83
2019-02-15T02:07:58.981Z,961.79
2019-02-15T02:10:25.287Z,961.82
2019-02-15T02:12:51.596Z,961.89
2019-02-15T02:15:17.902Z,961.79
2019-02-15T02:17:44.207Z,961.75
2019-02-15T02:20:10.520Z,961.74
2019-02-15T02:22:36.824Z,961.68
2019-02-15T02:25:03.141Z,961.70
2019-02-15T02:27:29.450Z,961.67
2019-02-15T02:29:55.758Z,961.69
2019-02-15T02:32:22.074Z,961.70
2019-02-15T02:34:48.392Z,961.66
2019-02-15T02:37:14.691Z,961.68
2019-02-15T02:39:40.998Z,961.64
2019-02-15T02:42:07.303Z,961.66
2019-02-15T02:44:33.613Z,961.58
2019-02-15T02:46:59.924Z,961.56
2019-02-15T02:49:26.243Z,961.62
2019-02-15T02:51:52.542Z,961.62
2019-02-15T02:54:18.848Z,961.57
2019-02-15T02:56:45.158Z,961.58
2019-02-15T02:59:11.472Z,961.63
2019-02-15T03:01:37.777Z,961.74
2019-02-15T03:04:04.083Z,961.67
2019-02-15T03:06:30.399Z,961.62
2019-02-15T03:08:56.703Z,961.71
2019-02-15T03:11:23.010Z,961.65
2019-02-15T03:13:49.317Z,961.67
2019-02-15T03:16:15.635Z,961.65
2019-02-15T03:18:41.933Z,961.63
2019-02-15T03:21:08.240Z,961.71
2019-02-15T03:23:34.550Z,961.71
2019-02-15T03:26:00.863Z,961.70
2019-02-15T03:28:27.162Z,961.67
2019-02-15T03:30:53.470Z,961.69
2019-02-15T03:33:19.785Z,961.70
2019-02-15T03:35:46.094Z,961.70
2019-02-15T03:38:12.402Z,961.72
2019-02-15T03:40:38.709Z,961.77
2019-02-15T03:43:05.018Z,961.82
2019-02-15T03:45:31.325Z,961.80
2019-02-15T03:47:57.647Z,961.82
2019-02-15T03:50:23.957Z,961.80
2019-02-15T03:52:50.260Z,961.82
2019-02-15T03:55:16.604Z,961.76
2019-02-15T03:57:42.878Z,961.79
2019-02-15T04:00:09.184Z,961.83
2019-02-15T04:02:35.487Z,961.78
2019-02-15T04:05:01.803Z,961.78
2019-02-15T04:07:28.106Z,961.73
2019-02-15T04:09:54.424Z,961.75
2019-02-15T04:12:20.727Z,961.72
2019-02-15T04:14:47.041Z,961.83
2019-02-15T04:17:13.349Z,961.78
2019-02-15T04:19:39.666Z,961.86
2019-02-15T04:22:05.967Z,961.93
2019-02-15T04:24:32.274Z,961.89
2019-02-15T04:26:58.584Z,961.84
2019-02-15T04:29:24.891Z,961.96
2019-02-15T04:31:51.199Z,961.96
2019-02-15T04:34:17.541Z,961.98
2019-02-15T04:36:43.872Z,962.07
2019-02-15T04:39:10.190Z,962.05
2019-02-15T04:41:36.475Z,962.16
2019-02-15T04:44:02.786Z,962.11
2019-02-15T04:46:29.094Z,962.12
2019-02-15T04:48:55.411Z,962.12
2019-02-15T04:51:21.711Z,962.13
2019-02-15T04:53:48.027Z,962.10
2019-02-15T04:56:14.357Z,962.12
2019-02-15T04:58:40.692Z,962.15
2019-02-15T05:01:06.984Z,962.25
2019-02-15T05:03:33.297Z,962.24
2019-02-15T05:05:59.616Z,962.30
2019-02-15T05:08:25.923Z,962.39
2019-02-15T05:10:52.232Z,962.31
2019-02-15T05:13:18.543Z,962.45
2019-02-15T05:15:44.860Z,962.51
2019-02-15T05:18:11.155Z,962.53
2019-02-15T05:20:37.469Z,962.56
2019-02-15T05:23:03.783Z,962.61
2019-02-15T05:25:30.099Z,962.57
2019-02-15T05:27:56.399Z,962.59
2019-02-15T05:30:22.704Z,962.66
2019-02-15T05:32:49.015Z,962.73
2019-02-15T05:35:15.321Z,962.77
2019-02-15T05:37:41.653Z,962.83
2019-02-15T05:40:07.962Z,962.83
2019-02-15T05:42:34.274Z,962.85
2019-02-15T05:45:03.899Z,962.90
2019-02-15T05:47:26.913Z,962.87
2019-02-15T05:49:53.222Z,962.91
2019-02-15T05:52:19.525Z,962.96
2019-02-15T05:54:45.842Z,962.98
2019-02-15T05:57:12.143Z,963.00
2019-02-15T05:59:38.455Z,963.02
2019-02-15T06:02:04.761Z,963.05
2019-02-15T06:04:31.106Z,963.10
2019-02-15T06:06:57.427Z,963.19
2019-02-15T06:09:23.739Z,963.22
2019-02-15T06:11:50.044Z,963.24
2019-02-15T06:14:16.347Z,963.29
2019-02-15T06:16:42.688Z,963.32
2019-02-15T06:19:09.002Z,963.28
2019-02-15T06:21:35.387Z,963.31
2019-02-15T06:24:01.685Z,963.22
2019-02-15T06:26:28.004Z,963.32
2019-02-15T06:28:54.312Z,963.23
2019-02-15T06:31:20.623Z,963.27
2019-02-15T06:33:47.021Z,963.31
2019-02-15T06:36:13.333Z,963.33
2019-02-15T06:38:39.652Z,963.27
2019-02-15T06:41:05.961Z,963.35
2019-02-15T06:43:32.263Z,963.43
2019-02-15T06:45:58.576Z,963.38
2019-02-15T06:48:24.889Z,963.49
2019-02-15T06:50:51.193Z,963.51
2019-02-15T06:53:17.500Z,963.58
2019-02-15T06:55:43.811Z,963.67
2019-02-15T06:58:10.113Z,963.60
2019-02-15T07:00:36.423Z,963.63
2019-02-15T07:03:02.733Z,963.64
2019-02-15T07:05:29.049Z,963.61
2019-02-15T07:07:55.352Z,963.66
2019-02-15T07:10:21.672Z,963.70
2019-02-15T07:12:47.970Z,963.76
2019-02-15T07:15:14.281Z,963.71
2019-02-15T07:17:40.593Z,963.80
2019-02-15T07:20:06.903Z,963.85
2019-02-15T07:22:33.212Z,963.81
2019-02-15T07:24:59.539Z,963.85
2019-02-15T07:27:25.853Z,963.87
2019-02-15T07:29:52.161Z,963.75
2019-02-15T07:32:18.612Z,963.81
2019-02-15T07:34:44.924Z,963.81
2019-02-15T07:37:11.254Z,963.77
2019-02-15T07:39:37.554Z,963.81
2019-02-15T07:42:03.866Z,963.71
2019-02-15T07:44:30.174Z,963.72
2019-02-15T07:46:56.479Z,963.60
2019-02-15T07:49:26.787Z,963.64
2019-02-15T07:51:49.102Z,963.53
2019-02-15T07:54:15.412Z,963.54
2019-02-15T07:56:41.722Z,963.53
2019-02-15T07:59:08.157Z,963.55
2019-02-15T08:01:34.454Z,963.60
2019-02-15T08:04:00.780Z,963.59
2019-02-15T08:06:27.091Z,963.57
2019-02-15T08:08:53.391Z,963.57
2019-02-15T08:11:19.706Z,963.69
2019-02-15T08:13:46.012Z,963.66
2019-02-15T08:16:12.321Z,963.62
2019-02-15T08:18:38.629Z,963.66
2019-02-15T08:21:04.940Z,963.71
2019-02-15T08:23:31.261Z,963.72
2019-02-15T08:25:57.572Z,963.75
2019-02-15T08:28:23.873Z,963.82
2019-02-15T08:30:50.179Z,963.79
2019-02-15T08:33:16.483Z,963.82
2019-02-15T08:35:42.790Z,963.90
2019-02-15T08:38:09.106Z,963.87
2019-02-15T08:40:37.332Z,963.91
2019-02-15T08:43:01.721Z,963.95
2019-02-15T08:45:28.048Z,963.97
2019-02-15T08:47:54.356Z,963.90
2019-02-15T08:50:20.664Z,963.92
2019-02-15T08:52:46.972Z,963.90
2019-02-15T08:55:13.280Z,963.94
2019-02-15T08:57:39.636Z,963.94
2019-02-15T09:00:05.944Z,963.93
2019-02-15T09:02:32.249Z,963.99
2019-02-15T09:04:58.559Z,964.00
2019-02-15T09:07:24.904Z,964.02
2019-02-15T09:09:51.213Z,964.06
2019-02-15T09:12:17.518Z,964.05
2019-02-15T09:14:43.849Z,964.04
2019-02-15T09:17:10.151Z,964.02
2019-02-15T09:19:36.460Z,964.10
2019-02-15T09:22:02.768Z,964.16
2019-02-15T09:24:29.080Z,964.11
2019-02-15T09:26:55.375Z,964.13
2019-02-15T09:29:21.685Z,964.12
2019-02-15T09:31:48.031Z,964.15
2019-02-15T09:34:14.308Z,964.22
2019-02-15T09:36:40.641Z,964.20
2019-02-15T09:39:06.955Z,964.18
2019-02-15T09:41:33.274Z,964.26
2019-02-15T09:43:59.569Z,964.34
2019-02-15T09:46:25.877Z,964.22
2019-02-15T09:48:52.189Z,964.30
2019-02-15T09:51:18.495Z,964.29
2019-02-15T09:53:44.802Z,964.28
2019-02-15T09:56:11.108Z,964.25
2019-02-15T09:58:37.422Z,964.25
2019-02-15T10:01:03.726Z,964.15
2019-02-15T10:03:30.030Z,964.14
2019-02-15T10:05:56.341Z,964.18
2019-02-15T10:08:22.656Z,964.16
2019-02-15T10:10:48.956Z,964.19
2019-02-15T10:13:15.269Z,964.15
2019-02-15T10:15:41.573Z,964.16
2019-02-15T10:18:07.887Z,964.22
2019-02-15T10:20:34.191Z,964.31
2019-02-15T10:23:00.520Z,964.28
2019-02-15T10:25:26.812Z,964.30
2019-02-15T10:27:53.211Z,964.31
2019-02-15T10:30:19.516Z,964.29
2019-02-15T10:32:45.829Z,964.36
2019-02-15T10:35:12.149Z,964.40
2019-02-15T10:37:38.455Z,964.42
2019-02-15T10:40:04.771Z,964.40
2019-02-15T10:42:31.077Z,964.54
2019-02-15T10:44:57.393Z,964.49
2019-02-15T10:47:25.305Z,964.48
2019-02-15T10:49:50.000Z,964.47
2019-02-15T10:52:16.312Z,964.45
2019-02-15T10:54:42.619Z,964.50
2019-02-15T10:57:08.920Z,964.56
2019-02-15T10:59:35.234Z,964.46
2019-02-15T11:02:01.557Z,964.46
2019-02-15T11:04:27.868Z,964.50
2019-02-15T11:06:54.168Z,964.49
2019-02-15T11:09:20.486Z,964.56
2019-02-15T11:11:46.794Z,964.46
2019-02-15T11:14:13.111Z,964.47
2019-02-15T11:16:47.026Z,964.51
2019-02-15T11:19:05.722Z,964.52
2019-02-15T11:21:32.030Z,964.45
2019-02-15T11:23:58.338Z,964.57
2019-02-15T11:26:25.073Z,964.56
2019-02-15T11:28:50.952Z,964.64
2019-02-15T11:31:17.259Z,964.50
2019-02-15T11:33:43.564Z,964.54
2019-02-15T11:36:09.876Z,964.49
2019-02-15T11:38:36.182Z,964.46
2019-02-15T11:41:10.715Z,964.40
2019-02-15T11:43:28.785Z,964.48
2019-02-15T11:45:55.098Z,964.44
2019-02-15T11:48:21.404Z,964.44
2019-02-15T11:50:47.716Z,964.47
2019-02-15T11:53:14.021Z,964.45
2019-02-15T11:55:40.328Z,964.57
2019-02-15T11:58:06.665Z,964.51
2019-02-15T12:00:32.977Z,964.47
2019-02-15T12:02:59.289Z,964.59
2019-02-15T12:05:25.633Z,964.58
2019-02-15T12:07:51.944Z,964.56
2019-02-15T12:10:18.257Z,964.61
2019-02-15T12:12:44.569Z,964.55
2019-02-15T12:15:10.877Z,964.59
2019-02-15T12:17:37.188Z,964.57
2019-02-15T12:20:03.496Z,964.53
2019-02-15T12:22:29.800Z,964.53
2019-02-15T12:24:56.125Z,964.47
2019-02-15T12:27:22.430Z,964.45
2019-02-15T12:29:48.737Z,964.48
2019-02-15T12:32:15.045Z,964.46
2019-02-15T12:34:41.356Z,964.52
2019-02-15T12:37:07.660Z,964.48
2019-02-15T12:39:33.973Z,964.62
2019-02-15T12:42:00.281Z,964.49
2019-02-15T12:44:27.824Z,964.47
2019-02-15T12:46:52.902Z,964.42
2019-02-15T12:49:19.220Z,964.42
2019-02-15T12:51:45.617Z,964.39
2019-02-15T12:54:11.926Z,964.41
2019-02-15T12:56:38.236Z,964.35
2019-02-15T12:59:04.537Z,964.36
2019-02-15T13:01:30.852Z,964.38
2019-02-15T13:03:57.162Z,964.34
2019-02-15T13:06:28.670Z,964.34
2019-02-15T13:08:49.781Z,964.36
2019-02-15T13:11:16.089Z,964.41
2019-02-15T13:13:42.397Z,964.39
2019-02-15T13:16:08.711Z,964.44
2019-02-15T13:18:35.018Z,964.43
2019-02-15T13:21:01.331Z,964.39
2019-02-15T13:23:27.644Z,964.43
2019-02-15T13:25:53.991Z,964.46
2019-02-15T13:28:20.258Z,964.48
2019-02-15T13:30:46.564Z,964.49
2019-02-15T13:33:12.874Z,964.51
2019-02-15T13:35:39.184Z,964.41
2019-02-15T13:38:05.511Z,964.48
2019-02-15T13:40:31.830Z,964.53
2019-02-15T13:42:58.142Z,964.61
2019-02-15T13:45:24.437Z,964.68
2019-02-15T13:47:50.756Z,964.59
2019-02-15T13:50:19.013Z,964.63
2019-02-15T13:52:43.405Z,964.55
2019-02-15T13:55:09.736Z,964.58
2019-02-15T13:57:36.032Z,964.57
2019-02-15T14:00:02.336Z,964.57
2019-02-15T14:02:28.659Z,964.58
2019-02-15T14:04:54.969Z,964.58
2019-02-15T14:07:21.288Z,964.53
2019-02-15T14:09:47.595Z,964.59
2019-02-15T14:12:13.913Z,964.59
2019-02-15T14:14:40.215Z,964.54
2019-02-15T14:17:06.541Z,964.57
2019-02-15T14:19:32.847Z,964.55
2019-02-15T14:21:59.161Z,964.50
2019-02-15T14:24:25.470Z,964.55
2019-02-15T14:26:51.782Z,964.55
2019-02-15T14:29:18.097Z,964.50
2019-02-15T14:31:44.416Z,964.46
2019-02-15T14:34:10.728Z,964.45
2019-02-15T14:36:37.040Z,964.43
2019-02-15T14:39:03.354Z,964.49
2019-02-15T14:41:29.656Z,964.40
2019-02-15T14:43:55.976Z,964.43
2019-02-15T14:46:22.286Z,964.40
2019-02-15T14:48:48.592Z,964.46
2019-02-15T14:51:14.897Z,964.46
2019-02-15T14:53:41.213Z,964.53
2019-02-15T14:56:07.518Z,964.51
2019-02-15T14:58:33.839Z,964.63
2019-02-15T15:01:00.142Z,964.57
2019-02-15T15:03:26.448Z,964.56
2019-02-15T15:05:54.847Z,964.49
2019-02-15T15:08:19.059Z,964.53
2019-02-15T15:10:45.387Z,964.51
2019-02-15T15:13:11.710Z,964.53
2019-02-15T15:15:38.017Z,964.52
2019-02-15T15:18:12.666Z,964.45
2019-02-15T15:20:30.627Z,964.43
2019-02-15T15:22:56.941Z,964.43
2019-02-15T15:25:23.257Z,964.43
2019-02-15T15:27:49.562Z,964.45
2019-02-15T15:30:15.873Z,964.48
2019-02-15T15:32:42.177Z,964.54
2019-02-15T15:35:08.509Z,964.54
2019-02-15T15:37:34.812Z,964.55
2019-02-15T15:40:01.120Z,964.56
2019-02-15T15:42:27.455Z,964.59
2019-02-15T15:44:53.743Z,964.65
2019-02-15T15:47:20.053Z,964.61
2019-02-15T15:49:46.361Z,964.68
2019-02-15T15:52:12.668Z,964.69
2019-02-15T15:54:38.981Z,964.75
2019-02-15T15:57:05.283Z,964.75
2019-02-15T15:59:31.591Z,964.86
2019-02-15T16:01:57.898Z,964.82
2019-02-15T16:04:24.216Z,964.91
2019-02-15T16:06:50.557Z,964.94
2019-02-15T16:09:16.866Z,964.98
2019-02-15T16:11:43.175Z,964.95
2019-02-15T16:14:09.540Z,964.92
2019-02-15T16:16:35.796Z,965.04
2019-02-15T16:19:02.105Z,965.00
2019-02-15T16:21:28.417Z,965.08
2019-02-15T16:23:54.741Z,965.09
2019-02-15T16:26:21.048Z,965.11
2019-02-15T16:28:47.355Z,965.06
2019-02-15T16:31:13.659Z,965.16
2019-02-15T16:33:39.968Z,965.19
2019-02-15T16:36:06.277Z,965.22
2019-02-15T16:38:32.654Z,965.27
2019-02-15T16:40:58.907Z,965.32
2019-02-15T16:43:25.223Z,965.35
2019-02-15T16:45:51.528Z,965.34
2019-02-15T16:48:17.840Z,965.51
2019-02-15T16:50:44.145Z,965.55
2019-02-15T16:53:10.455Z,965.60
2019-02-15T16:55:36.759Z,965.61
2019-02-15T16:58:03.069Z,965.61
2019-02-15T17:00:29.380Z,965.69
2019-02-15T17:02:55.683Z,965.73
2019-02-15T17:05:21.997Z,965.70
2019-02-15T17:07:48.324Z,965.72
2019-02-15T17:10:14.629Z,965.70
2019-02-15T17:12:40.938Z,965.76
2019-02-15T17:15:07.251Z,965.77
2019-02-15T17:17:33.557Z,965.77
2019-02-15T17:19:59.866Z,965.81
2019-02-15T17:22:26.182Z,965.93
2019-02-15T17:24:52.496Z,965.85
2019-02-15T17:27:18.802Z,965.87
2019-02-15T17:29:45.132Z,965.89
2019-02-15T17:32:11.438Z,965.93
2019-02-15T17:34:37.755Z,966.01
2019-02-15T17:37:04.082Z,966.00
2019-02-15T17:39:30.413Z,966.00
2019-02-15T17:41:56.724Z,965.98
2019-02-15T17:44:23.028Z,966.08
2019-02-15T17:46:49.337Z,966.00
2019-02-15T17:49:15.645Z,966.02
2019-02-15T17:51:41.979Z,965.99
2019-02-15T17:54:08.263Z,965.95
2019-02-15T17:56:34.568Z,965.92
2019-02-15T17:59:00.876Z,965.94
2019-02-15T18:01:27.193Z,965.96
2019-02-15T18:03:53.525Z,965.99
2019-02-15T18:06:19.857Z,966.03
2019-02-15T18:08:46.164Z,965.99
2019-02-15T18:11:12.472Z,966.02
2019-02-15T18:13:38.777Z,965.95
2019-02-15T18:16:05.091Z,965.96
2019-02-15T18:18:31.402Z,966.06
2019-02-15T18:20:57.726Z,966.09
2019-02-15T18:23:24.049Z,966.11
2019-02-15T18:25:50.361Z,966.11
2019-02-15T18:28:16.671Z,966.10
2019-02-15T18:30:42.981Z,966.16
2019-02-15T18:33:09.292Z,966.03
2019-02-15T18:35:35.602Z,966.04
2019-02-15T18:38:01.905Z,966.17
2019-02-15T18:40:28.209Z,966.11
2019-02-15T18:42:54.568Z,966.07
2019-02-15T18:45:20.905Z,966.18
2019-02-15T18:47:47.212Z,966.18
2019-02-15T18:50:13.526Z,966.16
2019-02-15T18:52:39.836Z,966.21
2019-02-15T18:55:06.149Z,966.21
2019-02-15T18:57:32.500Z,966.23
2019-02-15T18:59:58.756Z,966.25
2019-02-15T19:02:25.179Z,966.25
2019-02-15T19:04:51.554Z,966.22
2019-02-15T19:07:17.867Z,966.19
2019-02-15T19:09:44.169Z,966.21
2019-02-15T19:12:10.471Z,966.17
2019-02-15T19:14:36.779Z,966.22
2019-02-15T19:17:03.089Z,966.18
2019-02-15T19:19:29.543Z,966.21
2019-02-15T19:21:55.831Z,966.19
2019-02-15T19:24:22.148Z,966.18
2019-02-15T19:26:48.446Z,966.22
2019-02-15T19:29:14.752Z,966.26
2019-02-15T19:31:42.554Z,966.21
2019-02-15T19:34:07.372Z,966.15
2019-02-15T19:36:33.681Z,966.19
2019-02-15T19:39:00.070Z,966.12
2019-02-15T19:41:26.441Z,966.12
2019-02-15T19:43:52.754Z,966.22
2019-02-15T19:46:19.062Z,966.20
2019-02-15T19:48:45.384Z,966.15
2019-02-15T19:51:11.705Z,966.11
2019-02-15T19:53:38.064Z,966.08
2019-02-15T19:56:04.581Z,966.07
2019-02-15T19:58:30.887Z,966.13
2019-02-15T20:00:57.195Z,966.09
2019-02-15T20:03:23.558Z,966.09
2019-02-15T20:05:49.864Z,966.11
2019-02-15T20:08:16.206Z,966.09
2019-02-15T20:10:42.521Z,966.10
2019-02-15T20:13:08.839Z,966.08
2019-02-15T20:15:35.169Z,966.04
2019-02-15T20:18:01.481Z,966.09
2019-02-15T20:20:27.840Z,966.11
2019-02-15T20:22:54.166Z,966.10
2019-02-15T20:25:20.472Z,966.04
2019-02-15T20:27:46.779Z,966.11
2019-02-15T20:30:13.084Z,966.11
2019-02-15T20:32:39.392Z,966.08
2019-02-15T20:35:05.732Z,966.07
2019-02-15T20:37:32.056Z,966.13
2019-02-15T20:39:58.368Z,966.10
2019-02-15T20:42:24.671Z,966.06
2019-02-15T20:44:50.978Z,966.09
2019-02-15T20:47:17.286Z,966.10
2019-02-15T20:49:43.606Z,966.19
2019-02-15T20:52:09.911Z,966.24
2019-02-15T20:54:36.222Z,966.19
2019-02-15T20:57:02.528Z,966.14
2019-02-15T20:59:28.858Z,966.20
2019-02-15T21:01:55.168Z,966.20
2019-02-15T21:04:21.483Z,966.16
2019-02-15T21:06:47.812Z,966.18
2019-02-15T21:09:15.487Z,966.25
2019-02-15T21:11:40.505Z,966.20
2019-02-15T21:14:06.808Z,966.20
2019-02-15T21:16:33.118Z,966.20
2019-02-15T21:18:59.423Z,966.20
2019-02-15T21:21:25.727Z,966.26
2019-02-15T21:23:52.041Z,966.25
2019-02-15T21:26:18.354Z,966.25
2019-02-15T21:28:44.652Z,966.23
2019-02-15T21:31:10.973Z,966.33
2019-02-15T21:33:37.295Z,966.24
2019-02-15T21:36:03.630Z,966.26
2019-02-15T21:38:30.106Z,966.29
2019-02-15T21:40:56.463Z,966.32
2019-02-15T21:43:25.524Z,966.32
2019-02-15T21:45:51.815Z,966.33
2019-02-15T21:48:22.030Z,966.33
2019-02-15T21:50:49.632Z,966.34
2019-02-15T21:53:18.550Z,966.29
2019-02-15T21:55:42.932Z,966.29
2019-02-15T21:58:11.204Z,966.26
2019-02-15T22:00:37.101Z,966.32
2019-02-15T22:03:02.279Z,966.29
2019-02-15T22:05:28.623Z,966.34
2019-02-15T22:07:55.017Z,966.27
2019-02-15T22:10:24.767Z,966.19
2019-02-15T22:12:50.120Z,966.17
2019-02-15T22:15:16.421Z,966.19
2019-02-15T22:17:42.740Z,966.27
2019-02-15T22:20:09.047Z,966.22
2019-02-15T22:22:35.351Z,966.28
2019-02-15T22:25:01.660Z,966.39
2019-02-15T22:27:27.968Z,966.25
2019-02-15T22:29:54.302Z,966.30
2019-02-15T22:32:20.603Z,966.31
2019-02-15T22:34:46.908Z,966.41
2019-02-15T22:37:13.232Z,966.40
2019-02-15T22:39:39.535Z,966.35
2019-02-15T22:42:05.857Z,966.34
2019-02-15T22:44:32.168Z,966.34
2019-02-15T22:46:58.500Z,966.24
2019-02-15T22:49:24.808Z,966.29
2019-02-15T22:51:51.112Z,966.31
2019-02-15T22:54:17.419Z,966.28
2019-02-15T22:56:43.725Z,966.29
2019-02-15T22:59:10.026Z,966.33
2019-02-15T23:01:36.333Z,966.32
2019-02-15T23:04:02.661Z,966.28
2019-02-15T23:06:28.966Z,966.22
2019-02-15T23:08:55.273Z,966.23
2019-02-15T23:11:21.601Z,966.28
2019-02-15T23:13:48.104Z,966.22
2019-02-15T23:16:14.220Z,966.23
2019-02-15T23:18:40.524Z,966.25
2019-02-15T23:21:06.902Z,966.25
2019-02-15T23:23:33.190Z,966.16
2019-02-15T23:25:59.558Z,966.20
2019-02-15T23:28:25.802Z,966.23
2019-02-15T23:30:52.108Z,966.29
2019-02-15T23:33:18.418Z,966.20
2019-02-15T23:35:44.728Z,966.22
2019-02-15T23:38:11.033Z,966.20
2019-02-15T23:40:37.339Z,966.19
2019-02-15T23:43:03.648Z,966.18
2019-02-15T23:45:29.947Z,966.23
2019-02-15T23:47:56.251Z,966.21
2019-02-15T23:50:22.551Z,966.18
2019-02-15T23:52:48.870Z,966.18
2019-02-15T23:55:15.164Z,966.21
2019-02-15T23:57:41.472Z,966.16
